KMYV

Yuba County Airport

Marysville, California, USA
METAR KMYV 221653Z AUTO 17009KT 10SM CLR 19/12 A2987 RMK AO2 SLP117 T01890117
Observed Flight Rules
May-22 @ 16:53 UTC (53 minutes ago) Visual Flight Rules
Wind Visibility Clouds
170° at 9 knots 10 miles
  • Clear skies
Temperatures Readings
Current 19°C / 66°F
Dewpoint 12°C / 54°F
Humidity 64%
Altimeter 29.87" Hg
Pressure 1011.7 hPa
Elevation 21
METAR KMYV 221653Z AUTO 17009KT 10SM CLR 19/12 A2987 RMK AO2 SLP117 T01890117
Observed Flight Rules
May-22 @ 16:53 UTC
(53 minutes ago)
VFR
Wind Visibility
170° at 9 knots 10 miles
Clouds
  • Clear skies
Temperature Dewpoint
19°C / 66°F 12°C / 54°F
Humidity Altimeter Pressure
64% 29.87" Hg 1011.7 hPa